createdAt,value
2016-12-24T00:00:38.511Z,963.23
2016-12-24T00:01:38.494Z,963.19
2016-12-24T00:02:38.476Z,963.29
2016-12-24T00:03:38.460Z,963.31
2016-12-24T00:04:38.443Z,963.36
2016-12-24T00:05:38.425Z,963.37
2016-12-24T00:06:38.408Z,963.35
2016-12-24T00:07:38.390Z,963.34
2016-12-24T00:08:38.378Z,963.43
2016-12-24T00:09:38.356Z,963.43
2016-12-24T00:10:38.341Z,963.51
2016-12-24T00:11:38.322Z,963.6
2016-12-24T00:12:38.305Z,963.7
2016-12-24T00:13:38.286Z,963.64
2016-12-24T00:14:38.269Z,963.69
2016-12-24T00:15:38.253Z,963.8
2016-12-24T00:16:38.238Z,963.78
2016-12-24T00:17:38.220Z,963.75
2016-12-24T00:18:38.201Z,963.78
2016-12-24T00:19:38.187Z,963.84
2016-12-24T00:20:38.169Z,963.88
2016-12-24T00:21:38.152Z,963.86
2016-12-24T00:22:38.136Z,963.85
2016-12-24T00:23:38.118Z,963.92
2016-12-24T00:24:38.100Z,963.94
2016-12-24T00:25:38.084Z,963.92
2016-12-24T00:26:38.073Z,964.02
2016-12-24T00:27:38.051Z,964
2016-12-24T00:28:38.033Z,963.93
2016-12-24T00:29:38.185Z,963.95
2016-12-24T00:30:38.002Z,963.94
2016-12-24T00:31:37.983Z,963.97
2016-12-24T00:32:37.967Z,964.03
2016-12-24T00:33:37.951Z,963.99
2016-12-24T00:34:37.942Z,964
2016-12-24T00:35:38.086Z,963.94
2016-12-24T00:36:38.061Z,963.99
2016-12-24T00:37:38.005Z,963.77
2016-12-24T00:38:37.868Z,963.78
2016-12-24T00:39:37.849Z,963.71
2016-12-24T00:40:37.834Z,963.74
2016-12-24T00:41:37.838Z,963.8
2016-12-24T00:42:37.913Z,963.78
2016-12-24T00:43:37.846Z,963.78
2016-12-24T00:44:37.880Z,963.73
2016-12-24T00:45:37.833Z,963.75
2016-12-24T00:46:37.733Z,963.71
2016-12-24T00:47:37.717Z,963.67
2016-12-24T00:48:37.833Z,963.6
2016-12-24T00:49:37.806Z,963.6
2016-12-24T00:50:37.802Z,963.52
2016-12-24T00:51:37.817Z,963.6
2016-12-24T00:52:37.635Z,963.62
2016-12-24T00:53:37.618Z,963.58
2016-12-24T00:54:37.603Z,963.6
2016-12-24T00:55:37.587Z,963.64
2016-12-24T00:56:37.720Z,963.62
2016-12-24T00:57:37.652Z,963.7
2016-12-24T00:58:37.701Z,963.69
2016-12-24T00:59:37.631Z,963.6
2016-12-24T01:00:37.569Z,963.74
2016-12-24T01:01:37.487Z,963.7
2016-12-24T01:02:37.470Z,963.61
2016-12-24T01:03:37.577Z,963.65
2016-12-24T01:04:37.582Z,963.51
2016-12-24T01:05:37.500Z,963.53
2016-12-24T01:06:37.557Z,963.63
2016-12-24T01:07:37.595Z,963.61
2016-12-24T01:08:37.373Z,963.62
2016-12-24T01:09:37.356Z,963.58
2016-12-24T01:10:37.339Z,963.67
2016-12-24T01:11:37.323Z,963.74
2016-12-24T01:12:37.518Z,963.72
2016-12-24T01:13:37.330Z,963.68
2016-12-24T01:14:37.395Z,963.69
2016-12-24T01:15:37.412Z,963.86
2016-12-24T01:16:37.241Z,963.73
2016-12-24T01:17:37.225Z,963.72
2016-12-24T01:18:37.210Z,963.66
2016-12-24T01:19:37.192Z,963.63
2016-12-24T01:20:37.227Z,963.61
2016-12-24T01:21:37.160Z,963.53
2016-12-24T01:22:37.143Z,963.57
2016-12-24T01:23:37.128Z,963.51
2016-12-24T01:24:37.265Z,963.53
2016-12-24T01:25:37.263Z,963.53
2016-12-24T01:26:37.082Z,963.73
2016-12-24T01:27:37.348Z,963.7
2016-12-24T01:28:37.046Z,963.74
2016-12-24T01:29:37.031Z,963.75
2016-12-24T01:30:37.013Z,963.79
2016-12-24T01:31:37.062Z,963.71
2016-12-24T01:32:37.106Z,963.79
2016-12-24T01:33:37.102Z,963.79
2016-12-24T01:34:37.040Z,963.91
2016-12-24T01:35:36.933Z,963.82
2016-12-24T01:36:37.021Z,963.78
2016-12-24T01:37:36.900Z,963.66
2016-12-24T01:38:36.883Z,963.65
2016-12-24T01:39:36.868Z,963.59
2016-12-24T01:40:36.852Z,963.56
2016-12-24T01:41:36.922Z,963.49
2016-12-24T01:42:36.971Z,963.42
2016-12-24T01:43:36.911Z,963.49
2016-12-24T01:44:36.876Z,963.58
2016-12-24T01:45:36.770Z,963.6
2016-12-24T01:46:36.755Z,963.63
2016-12-24T01:47:36.739Z,963.52
2016-12-24T01:48:36.721Z,963.53
2016-12-24T01:49:36.843Z,963.54
2016-12-24T01:50:36.769Z,963.47
2016-12-24T01:51:36.679Z,963.35
2016-12-24T01:52:36.758Z,963.33
2016-12-24T01:53:36.642Z,963.23
2016-12-24T01:54:36.626Z,963.2
2016-12-24T01:55:36.607Z,963.21
2016-12-24T01:56:36.593Z,963.28
2016-12-24T01:57:36.576Z,963.37
2016-12-24T01:58:36.561Z,963.25
2016-12-24T01:59:36.543Z,963.11
2016-12-24T02:00:36.527Z,963.15
2016-12-24T02:01:36.511Z,963.21
2016-12-24T02:02:36.495Z,963.08
2016-12-24T02:03:36.476Z,963.23
2016-12-24T02:04:36.461Z,963.09
2016-12-24T02:05:36.445Z,963.02
2016-12-24T02:06:36.428Z,963.01
2016-12-24T02:07:36.412Z,963.04
2016-12-24T02:08:36.395Z,963.07
2016-12-24T02:09:36.379Z,963.02
2016-12-24T02:10:36.363Z,962.96
2016-12-24T02:11:36.346Z,962.96
2016-12-24T02:12:36.330Z,962.99
2016-12-24T02:13:36.313Z,963
2016-12-24T02:14:36.298Z,963
2016-12-24T02:15:36.280Z,963.13
2016-12-24T02:16:36.265Z,963
2016-12-24T02:17:36.247Z,963.02
2016-12-24T02:18:36.231Z,962.96
2016-12-24T02:19:36.215Z,962.8
2016-12-24T02:20:36.199Z,962.79
2016-12-24T02:21:36.183Z,962.7
2016-12-24T02:22:36.165Z,962.65
2016-12-24T02:23:36.150Z,962.64
2016-12-24T02:24:36.134Z,962.59
2016-12-24T02:25:36.118Z,962.58
2016-12-24T02:26:36.106Z,962.64
2016-12-24T02:27:36.086Z,962.49
2016-12-24T02:28:36.069Z,962.43
2016-12-24T02:29:36.053Z,962.4
2016-12-24T02:30:36.036Z,962.46
2016-12-24T02:31:36.020Z,962.43
2016-12-24T02:32:36.003Z,962.5
2016-12-24T02:33:35.987Z,962.54
2016-12-24T02:34:35.973Z,962.58
2016-12-24T02:35:36.103Z,962.62
2016-12-24T02:36:35.946Z,962.6
2016-12-24T02:37:35.923Z,962.63
2016-12-24T02:38:35.907Z,962.57
2016-12-24T02:39:35.890Z,962.52
2016-12-24T02:40:35.875Z,962.49
2016-12-24T02:41:35.857Z,962.59
2016-12-24T02:42:35.842Z,962.64
2016-12-24T02:43:35.826Z,962.62
2016-12-24T02:44:35.809Z,962.68
2016-12-24T02:45:35.793Z,962.68
2016-12-24T02:46:35.776Z,962.73
2016-12-24T02:47:35.759Z,962.69
2016-12-24T02:48:35.743Z,962.65
2016-12-24T02:49:35.728Z,962.71
2016-12-24T02:50:35.748Z,962.71
2016-12-24T02:51:35.695Z,962.67
2016-12-24T02:52:35.679Z,962.76
2016-12-24T02:53:35.662Z,962.69
2016-12-24T02:54:35.648Z,962.71
2016-12-24T02:55:35.630Z,962.59
2016-12-24T02:56:35.725Z,962.64
2016-12-24T02:57:35.599Z,962.65
2016-12-24T02:58:35.581Z,962.68
2016-12-24T02:59:35.568Z,962.6
2016-12-24T03:00:35.550Z,962.56
2016-12-24T03:01:35.534Z,962.57
2016-12-24T03:02:35.517Z,962.58
2016-12-24T03:03:35.502Z,962.45
2016-12-24T03:04:35.487Z,962.54
2016-12-24T03:05:35.469Z,962.55
2016-12-24T03:06:35.452Z,962.6
2016-12-24T03:07:35.437Z,962.52
2016-12-24T03:08:35.423Z,962.58
2016-12-24T03:09:35.405Z,962.56
2016-12-24T03:10:35.391Z,962.57
2016-12-24T03:11:35.373Z,962.47
2016-12-24T03:12:35.528Z,962.45
2016-12-24T03:13:35.341Z,962.45
2016-12-24T03:14:35.325Z,962.41
2016-12-24T03:15:35.310Z,962.53
2016-12-24T03:16:35.292Z,962.36
2016-12-24T03:17:35.278Z,962.36
2016-12-24T03:18:35.262Z,962.36
2016-12-24T03:19:35.247Z,962.32
2016-12-24T03:20:35.230Z,962.37
2016-12-24T03:21:35.215Z,962.4
2016-12-24T03:22:35.199Z,962.43
2016-12-24T03:23:35.181Z,962.36
2016-12-24T03:24:35.167Z,962.28
2016-12-24T03:25:35.150Z,962.22
2016-12-24T03:26:35.136Z,962.17
2016-12-24T03:27:35.118Z,962.12
2016-12-24T03:28:35.103Z,962.18
2016-12-24T03:29:35.087Z,962.24
2016-12-24T03:30:35.071Z,962.28
2016-12-24T03:31:35.055Z,962.27
2016-12-24T03:32:35.040Z,962.33
2016-12-24T03:33:35.024Z,962.27
2016-12-24T03:34:35.008Z,962.13
2016-12-24T03:35:35.013Z,962.13
2016-12-24T03:36:34.977Z,962.11
2016-12-24T03:37:34.961Z,961.97
2016-12-24T03:38:34.944Z,961.99
2016-12-24T03:39:34.928Z,961.97
2016-12-24T03:40:34.912Z,961.9
2016-12-24T03:41:34.897Z,961.91
2016-12-24T03:42:34.879Z,961.84
2016-12-24T03:43:34.866Z,961.87
2016-12-24T03:44:34.849Z,961.86
2016-12-24T03:45:34.833Z,961.87
2016-12-24T03:46:34.817Z,961.74
2016-12-24T03:47:34.803Z,961.72
2016-12-24T03:48:34.787Z,961.66
2016-12-24T03:49:34.771Z,961.57
2016-12-24T03:50:34.754Z,961.59
2016-12-24T03:51:34.737Z,961.64
2016-12-24T03:52:34.722Z,961.67
2016-12-24T03:53:34.706Z,961.73
2016-12-24T03:54:34.690Z,961.68
2016-12-24T03:55:34.675Z,961.62
2016-12-24T03:56:34.658Z,961.61
2016-12-24T03:57:34.643Z,961.68
2016-12-24T03:58:34.628Z,961.61
2016-12-24T03:59:34.611Z,961.59
2016-12-24T04:00:34.595Z,961.67
2016-12-24T04:01:34.580Z,961.71
2016-12-24T04:02:34.564Z,961.66
2016-12-24T04:03:34.547Z,961.7
2016-12-24T04:04:34.532Z,961.62
2016-12-24T04:05:34.516Z,961.64
2016-12-24T04:06:34.500Z,961.74
2016-12-24T04:07:34.562Z,961.74
2016-12-24T04:08:34.469Z,961.69
2016-12-24T04:09:34.452Z,961.7
2016-12-24T04:10:34.437Z,961.69
2016-12-24T04:11:34.420Z,961.75
2016-12-24T04:12:34.405Z,961.65
2016-12-24T04:13:34.388Z,961.62
2016-12-24T04:14:34.372Z,961.66
2016-12-24T04:15:34.357Z,961.63
2016-12-24T04:16:34.342Z,961.62
2016-12-24T04:17:34.324Z,961.63
2016-12-24T04:18:34.308Z,961.69
2016-12-24T04:19:34.293Z,961.69
2016-12-24T04:20:34.277Z,961.68
2016-12-24T04:21:34.260Z,961.65
2016-12-24T04:22:34.244Z,961.64
2016-12-24T04:23:34.229Z,961.64
2016-12-24T04:24:34.212Z,961.63
2016-12-24T04:25:34.196Z,961.53
2016-12-24T04:26:34.180Z,961.47
2016-12-24T04:27:34.165Z,961.44
2016-12-24T04:28:34.150Z,961.32
2016-12-24T04:29:34.132Z,961.42
2016-12-24T04:30:34.118Z,961.41
2016-12-24T04:31:34.102Z,961.41
2016-12-24T04:32:34.085Z,961.42
2016-12-24T04:33:34.069Z,961.43
2016-12-24T04:34:34.054Z,961.43
2016-12-24T04:35:34.039Z,961.54
2016-12-24T04:36:34.021Z,961.61
2016-12-24T04:37:34.006Z,961.61
2016-12-24T04:38:33.989Z,961.62
2016-12-24T04:39:33.974Z,961.62
2016-12-24T04:40:33.956Z,961.48
2016-12-24T04:41:33.942Z,961.45
2016-12-24T04:42:33.926Z,961.44
2016-12-24T04:43:33.908Z,961.36
2016-12-24T04:44:33.893Z,961.34
2016-12-24T04:45:33.877Z,961.37
2016-12-24T04:46:33.863Z,961.38
2016-12-24T04:47:33.845Z,961.34
2016-12-24T04:48:33.829Z,961.28
2016-12-24T04:49:33.814Z,961.33
2016-12-24T04:50:33.799Z,961.42
2016-12-24T04:51:33.782Z,961.36
2016-12-24T04:52:33.767Z,961.51
2016-12-24T04:53:33.751Z,961.52
2016-12-24T04:54:33.733Z,961.55
2016-12-24T04:55:33.719Z,961.52
2016-12-24T04:56:33.705Z,961.58
2016-12-24T04:57:33.691Z,961.61
2016-12-24T04:58:33.670Z,961.52
2016-12-24T04:59:33.654Z,961.48
2016-12-24T05:00:33.639Z,961.46
2016-12-24T05:01:33.622Z,961.47
2016-12-24T05:02:33.607Z,961.59
2016-12-24T05:03:33.590Z,961.52
2016-12-24T05:04:33.575Z,961.52
2016-12-24T05:05:33.559Z,961.61
2016-12-24T05:06:33.543Z,961.63
2016-12-24T05:07:33.527Z,961.65
2016-12-24T05:08:33.512Z,961.6
2016-12-24T05:09:33.495Z,961.61
2016-12-24T05:10:33.480Z,961.59
2016-12-24T05:11:33.465Z,961.54
2016-12-24T05:12:33.448Z,961.44
2016-12-24T05:13:33.432Z,961.48
2016-12-24T05:14:33.416Z,961.56
2016-12-24T05:15:33.401Z,961.56
2016-12-24T05:16:33.384Z,961.63
2016-12-24T05:17:33.368Z,961.64
2016-12-24T05:18:33.354Z,961.61
2016-12-24T05:19:33.337Z,961.56
2016-12-24T05:20:33.322Z,961.48
2016-12-24T05:21:33.306Z,961.59
2016-12-24T05:22:33.290Z,961.53
2016-12-24T05:23:33.275Z,961.57
2016-12-24T05:24:33.259Z,961.5
2016-12-24T05:25:33.247Z,961.56
2016-12-24T05:26:33.227Z,961.54
2016-12-24T05:27:33.210Z,961.55
2016-12-24T05:28:33.195Z,961.61
2016-12-24T05:29:33.179Z,961.58
2016-12-24T05:30:33.163Z,961.63
2016-12-24T05:31:33.149Z,961.56
2016-12-24T05:32:33.133Z,961.55
2016-12-24T05:33:33.118Z,961.48
2016-12-24T05:34:33.101Z,961.41
2016-12-24T05:35:33.087Z,961.38
2016-12-24T05:36:33.070Z,961.44
2016-12-24T05:37:33.056Z,961.37
2016-12-24T05:38:33.038Z,961.46
2016-12-24T05:39:33.024Z,961.41
2016-12-24T05:40:33.071Z,961.49
2016-12-24T05:41:33.116Z,961.49
2016-12-24T05:42:33.124Z,961.48
2016-12-24T05:43:33.014Z,961.44
2016-12-24T05:44:32.944Z,961.42
2016-12-24T05:45:32.929Z,961.43
2016-12-24T05:46:32.913Z,961.41
2016-12-24T05:47:32.988Z,961.42
2016-12-24T05:48:32.931Z,961.44
2016-12-24T05:49:32.888Z,961.47
2016-12-24T05:50:32.975Z,961.49
2016-12-24T05:51:32.835Z,961.44
2016-12-24T05:52:32.820Z,961.49
2016-12-24T05:53:32.803Z,961.53
2016-12-24T05:54:32.866Z,961.54
2016-12-24T05:55:32.898Z,961.66
2016-12-24T05:56:32.764Z,961.6
2016-12-24T05:57:32.885Z,961.66
2016-12-24T05:58:32.755Z,961.71
2016-12-24T05:59:32.709Z,961.68
2016-12-24T06:00:32.692Z,961.7
2016-12-24T06:01:32.678Z,961.7
2016-12-24T06:02:32.661Z,961.75
2016-12-24T06:03:32.743Z,961.77
2016-12-24T06:04:32.771Z,961.81
2016-12-24T06:05:32.640Z,961.73
2016-12-24T06:06:32.700Z,961.72
2016-12-24T06:07:32.582Z,961.75
2016-12-24T06:08:32.567Z,961.66
2016-12-24T06:09:32.552Z,961.78
2016-12-24T06:10:32.676Z,961.85
2016-12-24T06:11:32.600Z,961.71
2016-12-24T06:12:32.615Z,961.73
2016-12-24T06:13:32.555Z,961.74
2016-12-24T06:14:32.517Z,961.66
2016-12-24T06:15:32.459Z,961.65
2016-12-24T06:16:32.442Z,961.66
2016-12-24T06:17:32.561Z,961.66
2016-12-24T06:18:32.536Z,961.63
2016-12-24T06:19:32.465Z,961.61
2016-12-24T06:20:32.492Z,961.62
2016-12-24T06:21:32.364Z,961.64
2016-12-24T06:22:32.348Z,961.76
2016-12-24T06:23:32.331Z,961.65
2016-12-24T06:24:32.416Z,961.74
2016-12-24T06:25:32.438Z,961.66
2016-12-24T06:26:32.377Z,961.69
2016-12-24T06:27:32.419Z,961.66
2016-12-24T06:28:32.301Z,961.65
2016-12-24T06:29:32.235Z,961.66
2016-12-24T06:30:32.420Z,961.61
2016-12-24T06:31:32.205Z,961.66
2016-12-24T06:32:32.190Z,961.67
2016-12-24T06:33:32.228Z,961.62
2016-12-24T06:34:32.247Z,961.57
2016-12-24T06:35:32.279Z,961.59
2016-12-24T06:36:32.273Z,961.64
2016-12-24T06:37:32.110Z,961.67
2016-12-24T06:38:32.094Z,961.67
2016-12-24T06:39:32.078Z,961.65
2016-12-24T06:40:32.060Z,961.65
2016-12-24T06:41:32.131Z,961.63
2016-12-24T06:42:32.126Z,961.65
2016-12-24T06:43:32.166Z,961.66
2016-12-24T06:44:31.996Z,961.62
2016-12-24T06:45:31.982Z,961.61
2016-12-24T06:46:32.275Z,961.65
2016-12-24T06:47:31.950Z,961.55
2016-12-24T06:48:31.933Z,961.62
2016-12-24T06:49:31.917Z,961.64
2016-12-24T06:50:31.901Z,961.6
2016-12-24T06:51:32.081Z,961.56
2016-12-24T06:52:32.027Z,961.6
2016-12-24T06:53:31.952Z,961.59
2016-12-24T06:54:31.838Z,961.61
2016-12-24T06:55:31.821Z,961.6
2016-12-24T06:56:31.807Z,961.52
2016-12-24T06:57:31.790Z,961.55
2016-12-24T06:58:31.866Z,961.46
2016-12-24T06:59:31.866Z,961.55
2016-12-24T07:00:31.882Z,961.55
2016-12-24T07:01:32.046Z,961.54
2016-12-24T07:02:31.710Z,961.5
2016-12-24T07:03:31.695Z,961.55
2016-12-24T07:04:31.678Z,961.53
2016-12-24T07:05:31.664Z,961.55
2016-12-24T07:06:31.933Z,961.68
2016-12-24T07:07:31.630Z,961.62
2016-12-24T07:08:31.614Z,961.62
2016-12-24T07:09:31.599Z,961.62
2016-12-24T07:10:31.588Z,961.6
2016-12-24T07:11:31.568Z,961.61
2016-12-24T07:12:31.553Z,961.59
2016-12-24T07:13:31.535Z,961.61
2016-12-24T07:14:31.521Z,961.7
2016-12-24T07:15:31.505Z,961.55
2016-12-24T07:16:31.493Z,961.57
2016-12-24T07:17:31.472Z,961.53
2016-12-24T07:18:31.456Z,961.56
2016-12-24T07:19:31.442Z,961.51
2016-12-24T07:20:31.425Z,961.55
2016-12-24T07:21:31.410Z,961.54
2016-12-24T07:22:31.394Z,961.49
2016-12-24T07:23:31.379Z,961.42
2016-12-24T07:24:31.362Z,961.53
2016-12-24T07:25:31.347Z,961.47
2016-12-24T07:26:31.332Z,961.59
2016-12-24T07:27:31.316Z,961.57
2016-12-24T07:28:31.298Z,961.55
2016-12-24T07:29:31.284Z,961.58
2016-12-24T07:30:31.268Z,961.66
2016-12-24T07:31:31.251Z,961.67
2016-12-24T07:32:31.236Z,961.68
2016-12-24T07:33:31.220Z,961.63
2016-12-24T07:34:31.206Z,961.7
2016-12-24T07:35:31.188Z,961.73
2016-12-24T07:36:31.174Z,961.83
2016-12-24T07:37:31.159Z,961.86
2016-12-24T07:38:31.145Z,961.82
2016-12-24T07:39:31.125Z,961.84
2016-12-24T07:40:31.111Z,961.84
2016-12-24T07:41:31.097Z,961.83
2016-12-24T07:42:31.080Z,961.81
2016-12-24T07:43:31.063Z,961.78
2016-12-24T07:44:31.049Z,961.77
2016-12-24T07:45:31.036Z,961.8
2016-12-24T07:46:31.016Z,961.8
2016-12-24T07:47:31.000Z,961.82
2016-12-24T07:48:30.987Z,961.89
2016-12-24T07:49:30.971Z,961.79
2016-12-24T07:50:30.954Z,961.83
2016-12-24T07:51:30.940Z,961.9
2016-12-24T07:52:30.924Z,961.78
2016-12-24T07:53:30.907Z,961.8
2016-12-24T07:54:30.895Z,961.85
2016-12-24T07:55:30.877Z,961.78
2016-12-24T07:56:30.861Z,961.73
2016-12-24T07:57:30.845Z,961.77
2016-12-24T07:58:30.829Z,961.7
2016-12-24T07:59:30.814Z,961.69
2016-12-24T08:00:30.801Z,961.67
2016-12-24T08:01:30.783Z,961.71
2016-12-24T08:02:30.767Z,961.83
2016-12-24T08:03:30.752Z,961.77
2016-12-24T08:04:30.736Z,961.82
2016-12-24T08:05:30.721Z,961.91
2016-12-24T08:06:30.706Z,961.92
2016-12-24T08:07:30.690Z,961.86
2016-12-24T08:08:30.677Z,961.85
2016-12-24T08:09:30.659Z,961.8
2016-12-24T08:10:30.645Z,961.74
2016-12-24T08:11:30.628Z,961.79
2016-12-24T08:12:30.612Z,961.92
2016-12-24T08:13:30.596Z,961.83
2016-12-24T08:14:30.582Z,961.85
2016-12-24T08:15:30.565Z,961.86
2016-12-24T08:16:30.551Z,961.85
2016-12-24T08:17:30.535Z,961.81
2016-12-24T08:18:30.521Z,961.81
2016-12-24T08:19:30.505Z,961.78
2016-12-24T08:20:30.488Z,961.86
2016-12-24T08:21:30.475Z,961.8
2016-12-24T08:22:30.458Z,961.81
2016-12-24T08:23:30.443Z,961.88
2016-12-24T08:24:30.427Z,961.84
2016-12-24T08:25:30.411Z,961.85
2016-12-24T08:26:30.395Z,961.82
2016-12-24T08:27:30.381Z,961.85
2016-12-24T08:28:30.366Z,961.83
2016-12-24T08:29:30.350Z,961.83
2016-12-24T08:30:30.334Z,961.78
2016-12-24T08:31:30.320Z,961.72
2016-12-24T08:32:30.304Z,961.8
2016-12-24T08:33:30.288Z,961.77
2016-12-24T08:34:30.273Z,961.75
2016-12-24T08:35:30.257Z,961.75
2016-12-24T08:36:30.242Z,961.73
2016-12-24T08:37:30.226Z,961.73
2016-12-24T08:38:30.212Z,961.76
2016-12-24T08:39:30.195Z,961.78
2016-12-24T08:40:30.181Z,961.81
2016-12-24T08:41:30.164Z,961.75
2016-12-24T08:42:30.149Z,961.83
2016-12-24T08:43:30.134Z,961.74
2016-12-24T08:44:30.119Z,961.79
2016-12-24T08:45:30.104Z,961.78
2016-12-24T08:46:30.089Z,961.77
2016-12-24T08:47:30.074Z,961.86
2016-12-24T08:48:30.058Z,961.82
2016-12-24T08:49:30.042Z,961.84
2016-12-24T08:50:30.028Z,961.79
2016-12-24T08:51:30.012Z,961.74
2016-12-24T08:52:29.997Z,961.82
2016-12-24T08:53:29.981Z,961.81
2016-12-24T08:54:29.967Z,961.8
2016-12-24T08:55:29.951Z,961.81
2016-12-24T08:56:29.935Z,961.86
2016-12-24T08:57:29.919Z,961.84
2016-12-24T08:58:29.905Z,961.74
2016-12-24T08:59:29.888Z,961.75
2016-12-24T09:00:29.873Z,961.71
2016-12-24T09:01:29.858Z,961.77
2016-12-24T09:02:29.843Z,961.81
2016-12-24T09:03:29.826Z,961.8
2016-12-24T09:04:29.812Z,961.75
2016-12-24T09:05:29.796Z,961.72
2016-12-24T09:06:29.780Z,961.75
2016-12-24T09:07:29.765Z,961.7
2016-12-24T09:08:29.749Z,961.73
2016-12-24T09:09:29.736Z,961.73
2016-12-24T09:10:29.717Z,961.83
2016-12-24T09:11:29.704Z,961.82
2016-12-24T09:12:29.698Z,961.73
2016-12-24T09:13:29.674Z,961.78
2016-12-24T09:14:29.657Z,961.73
2016-12-24T09:15:29.642Z,961.72
2016-12-24T09:16:29.627Z,961.74
2016-12-24T09:17:29.609Z,961.77
2016-12-24T09:18:29.594Z,961.73
2016-12-24T09:19:29.580Z,961.72
2016-12-24T09:20:29.564Z,961.67
2016-12-24T09:21:29.548Z,961.68
2016-12-24T09:22:29.533Z,961.74
2016-12-24T09:23:29.517Z,961.74
2016-12-24T09:24:29.504Z,961.76
2016-12-24T09:25:29.486Z,961.77
2016-12-24T09:26:29.472Z,961.78
2016-12-24T09:27:29.456Z,961.82
2016-12-24T09:28:29.440Z,961.76
2016-12-24T09:29:29.425Z,961.75
2016-12-24T09:30:29.410Z,961.69
2016-12-24T09:31:29.395Z,961.66
2016-12-24T09:32:29.379Z,961.62
2016-12-24T09:33:29.363Z,961.6
2016-12-24T09:34:29.347Z,961.64
2016-12-24T09:35:29.332Z,961.59
2016-12-24T09:36:29.317Z,961.61
2016-12-24T09:37:29.301Z,961.52
2016-12-24T09:38:29.287Z,961.52
2016-12-24T09:39:29.271Z,961.52
2016-12-24T09:40:29.256Z,961.47
2016-12-24T09:41:29.241Z,961.49
2016-12-24T09:42:29.226Z,961.49
2016-12-24T09:43:29.210Z,961.45
2016-12-24T09:44:29.194Z,961.48
2016-12-24T09:45:29.180Z,961.51
2016-12-24T09:46:29.164Z,961.47
2016-12-24T09:47:29.148Z,961.51
2016-12-24T09:48:29.135Z,961.52
2016-12-24T09:49:29.118Z,961.56
2016-12-24T09:50:29.103Z,961.56
2016-12-24T09:51:29.088Z,961.51
2016-12-24T09:52:29.072Z,961.6
2016-12-24T09:53:29.057Z,961.6
2016-12-24T09:54:29.041Z,961.58
2016-12-24T09:55:29.027Z,961.59
2016-12-24T09:56:29.012Z,961.58
2016-12-24T09:57:28.997Z,961.64
2016-12-24T09:58:28.982Z,961.62
2016-12-24T09:59:28.966Z,961.68
2016-12-24T10:00:28.952Z,961.61
2016-12-24T10:01:28.936Z,961.68
2016-12-24T10:02:28.921Z,961.68
2016-12-24T10:03:28.905Z,961.62
2016-12-24T10:04:28.891Z,961.69
2016-12-24T10:05:28.874Z,961.65
2016-12-24T10:06:28.861Z,961.56
2016-12-24T10:07:28.844Z,961.59
2016-12-24T10:08:28.830Z,961.6
2016-12-24T10:09:28.814Z,961.57
2016-12-24T10:10:28.799Z,961.54
2016-12-24T10:11:28.784Z,961.52
2016-12-24T10:12:28.768Z,961.53
2016-12-24T10:13:28.754Z,961.5
2016-12-24T10:14:28.739Z,961.51
2016-12-24T10:15:28.724Z,961.45
2016-12-24T10:16:28.708Z,961.44
2016-12-24T10:17:28.693Z,961.44
2016-12-24T10:18:28.677Z,961.48
2016-12-24T10:19:28.663Z,961.55
2016-12-24T10:20:28.647Z,961.53
2016-12-24T10:21:28.634Z,961.51
2016-12-24T10:22:28.617Z,961.53
2016-12-24T10:23:28.603Z,961.49
2016-12-24T10:24:28.587Z,961.44
2016-12-24T10:25:28.574Z,961.55
2016-12-24T10:26:28.560Z,961.5
2016-12-24T10:27:28.542Z,961.42
2016-12-24T10:28:28.526Z,961.39
2016-12-24T10:29:28.512Z,961.32
2016-12-24T10:30:28.497Z,961.33
2016-12-24T10:31:28.481Z,961.23
2016-12-24T10:32:28.466Z,961.22
2016-12-24T10:33:28.451Z,961.23
2016-12-24T10:34:28.436Z,961.15
2016-12-24T10:35:28.421Z,961.09
2016-12-24T10:36:28.407Z,961.1
2016-12-24T10:37:28.392Z,961.11
2016-12-24T10:38:28.376Z,961.05
2016-12-24T10:39:28.362Z,961.05
2016-12-24T10:40:28.346Z,961.03
2016-12-24T10:41:28.331Z,961.03
2016-12-24T10:42:28.315Z,960.95
2016-12-24T10:43:28.301Z,960.92
2016-12-24T10:44:28.285Z,960.97
2016-12-24T10:45:28.271Z,960.9
2016-12-24T10:46:28.255Z,960.78
2016-12-24T10:47:28.241Z,960.81
2016-12-24T10:48:28.226Z,960.78
2016-12-24T10:49:28.210Z,960.78
2016-12-24T10:50:28.195Z,960.77
2016-12-24T10:51:28.182Z,960.72
2016-12-24T10:52:28.165Z,960.79
2016-12-24T10:53:28.151Z,960.69
2016-12-24T10:54:28.135Z,960.74
2016-12-24T10:55:28.121Z,960.71
2016-12-24T10:56:28.105Z,960.77
2016-12-24T10:57:28.091Z,960.79
2016-12-24T10:58:28.076Z,960.78
2016-12-24T10:59:28.062Z,960.77
2016-12-24T11:00:28.045Z,960.8
2016-12-24T11:01:28.031Z,960.79
2016-12-24T11:02:28.017Z,960.85
2016-12-24T11:03:28.002Z,960.84
2016-12-24T11:04:27.985Z,960.88
2016-12-24T11:05:27.971Z,960.87
2016-12-24T11:06:27.958Z,960.88
2016-12-24T11:07:27.942Z,960.97
2016-12-24T11:08:27.927Z,960.96
2016-12-24T11:09:27.914Z,960.95
2016-12-24T11:10:27.899Z,960.94
2016-12-24T11:11:27.883Z,960.96
2016-12-24T11:12:27.868Z,960.99
2016-12-24T11:13:27.854Z,960.97
2016-12-24T11:14:27.839Z,960.99
2016-12-24T11:15:27.824Z,960.95
2016-12-24T11:16:27.809Z,960.95
2016-12-24T11:17:27.795Z,960.93
2016-12-24T11:18:27.779Z,960.99
2016-12-24T11:19:27.764Z,961
2016-12-24T11:20:27.749Z,961.06
2016-12-24T11:21:27.735Z,961.04
2016-12-24T11:22:27.720Z,961.01
2016-12-24T11:23:27.705Z,961.1
2016-12-24T11:24:27.691Z,961.02
2016-12-24T11:25:27.676Z,960.99
2016-12-24T11:26:27.662Z,961.02
2016-12-24T11:27:27.646Z,961.05
2016-12-24T11:28:27.633Z,961.06
2016-12-24T11:29:27.617Z,961.05
2016-12-24T11:30:27.602Z,960.97
2016-12-24T11:31:27.588Z,960.97
2016-12-24T11:32:27.573Z,961
2016-12-24T11:33:27.557Z,961.04
2016-12-24T11:34:27.543Z,961.14
2016-12-24T11:35:27.528Z,961.1
2016-12-24T11:36:27.513Z,961.13
2016-12-24T11:37:27.497Z,961.15
2016-12-24T11:38:27.483Z,961.14
2016-12-24T11:39:27.468Z,961.05
2016-12-24T11:40:27.452Z,961.01
2016-12-24T11:41:27.438Z,961.04
2016-12-24T11:42:27.425Z,960.96
2016-12-24T11:43:27.408Z,960.96
2016-12-24T11:44:27.394Z,960.95
2016-12-24T11:45:27.379Z,960.85
2016-12-24T11:46:27.365Z,960.75
2016-12-24T11:47:27.348Z,960.74
2016-12-24T11:48:27.334Z,960.8
2016-12-24T11:49:27.319Z,960.86
2016-12-24T11:50:27.306Z,961.04
2016-12-24T11:51:27.292Z,961.07
2016-12-24T11:52:27.277Z,961.03
2016-12-24T11:53:27.261Z,961.02
2016-12-24T11:54:27.246Z,960.99
2016-12-24T11:55:27.231Z,961.02
2016-12-24T11:56:27.218Z,961.01
2016-12-24T11:57:27.204Z,960.96
2016-12-24T11:58:27.187Z,960.91
2016-12-24T11:59:27.173Z,960.94
2016-12-24T12:00:27.158Z,960.87
2016-12-24T12:01:27.146Z,960.91
2016-12-24T12:02:27.128Z,960.95
2016-12-24T12:03:27.114Z,960.99
2016-12-24T12:04:27.099Z,960.97
2016-12-24T12:05:27.084Z,961
2016-12-24T12:06:27.067Z,961.07
2016-12-24T12:07:27.056Z,961.04
2016-12-24T12:08:27.040Z,961.04
2016-12-24T12:09:27.025Z,961.04
2016-12-24T12:10:27.010Z,961.05
2016-12-24T12:11:26.997Z,961.14
2016-12-24T12:12:26.982Z,961.11
2016-12-24T12:13:26.967Z,961.18
2016-12-24T12:14:26.952Z,961.19
2016-12-24T12:15:26.935Z,961.25
2016-12-24T12:16:26.922Z,961.2
2016-12-24T12:17:26.908Z,961.18
2016-12-24T12:18:26.893Z,961.14
2016-12-24T12:19:26.879Z,961.05
2016-12-24T12:20:26.863Z,960.98
2016-12-24T12:21:26.849Z,960.9
2016-12-24T12:22:26.834Z,960.84
2016-12-24T12:23:26.820Z,960.86
2016-12-24T12:24:26.805Z,960.84
2016-12-24T12:25:26.790Z,960.82
2016-12-24T12:26:26.777Z,960.83
2016-12-24T12:27:26.759Z,960.79
2016-12-24T12:28:26.745Z,960.83
2016-12-24T12:29:26.730Z,960.75
2016-12-24T12:30:26.717Z,960.68
2016-12-24T12:31:26.702Z,960.63